Time;durP1;ratioP1;P1;durP2;ratioP2;P2;SDS_P1;SDS_P2;PMS_P1;PMS_P2;Temp;Humidity;BMP_temperature;BMP_pressure;BME280_temperature;BME280_humidity;BME280_pressure;Samples;Min_cycle;Max_cycle;Signal;HPM_P1;HPM_P2
2021/07/26 00:01:41;;;;;;;;;7.50;7.50;;;;;21.21;65.53;100666.41;5022224;28;45232;-91
2021/07/26 00:04:06;;;;;;;;;9.50;8.25;;;;;21.23;65.46;100658.50;5021920;28;46126;-91
2021/07/26 00:06:32;;;;;;;;;6.75;6.75;;;;;21.21;65.71;100665.53;5023218;28;45185;-89
2021/07/26 00:08:58;;;;;;;;;5.25;5.25;;;;;21.15;65.72;100662.03;5037346;28;44709;-88
2021/07/26 00:11:23;;;;;;;;;7.00;7.00;;;;;21.13;65.23;100662.91;5042329;28;45162;-87
2021/07/26 00:13:49;;;;;;;;;7.50;7.50;;;;;21.08;65.00;100656.78;5027853;28;45605;-91
2021/07/26 00:16:14;;;;;;;;;10.50;10.00;;;;;21.02;64.72;100655.88;5021529;28;45351;-90
2021/07/26 00:18:40;;;;;;;;;10.75;10.00;;;;;21.01;64.93;100662.03;5020299;28;45364;-90
2021/07/26 00:21:06;;;;;;;;;9.75;9.75;;;;;20.99;64.88;100657.66;5021087;28;45394;-91
2021/07/26 00:23:31;;;;;;;;;10.00;10.00;;;;;20.99;65.18;100662.91;5024164;28;47463;-91
2021/07/26 00:25:57;;;;;;;;;10.75;8.75;;;;;20.94;65.02;100662.91;5023303;28;45301;-90
2021/07/26 00:28:23;;;;;;;;;9.00;7.25;;;;;20.95;65.08;100663.81;5025216;28;45311;-90
2021/07/26 00:30:49;;;;;;;;;13.25;8.00;;;;;20.92;65.78;100662.03;5026082;28;45324;-90
2021/07/26 00:36:27;;;;;;;;;10.25;10.25;;;;;20.86;65.08;100656.78;5021847;28;45866;-90
2021/07/26 00:38:52;;;;;;;;;10.75;8.25;;;;;20.84;65.50;100659.41;5022925;28;45388;-90
2021/07/26 00:41:18;;;;;;;;;11.50;10.25;;;;;20.84;65.50;100662.03;5023351;28;45399;-90
2021/07/26 00:43:43;;;;;;;;;10.00;10.00;;;;;20.84;65.66;100661.16;5022000;28;45945;-90
2021/07/26 00:46:09;;;;;;;;;12.00;10.50;;;;;20.80;65.44;100655.03;5020452;28;45349;-90
2021/07/26 00:48:35;;;;;;;;;12.50;11.00;;;;;20.80;66.09;100659.41;5030854;28;45369;-90
2021/07/26 00:51:02;;;;;;;;;11.25;11.25;;;;;20.79;65.92;100662.91;5028932;28;45262;-91
2021/07/26 00:53:28;;;;;;;;;15.50;14.00;;;;;20.72;65.96;100659.41;5019816;28;45448;-91
2021/07/26 00:55:55;;;;;;;;;15.50;12.50;;;;;20.68;65.73;100658.50;5019149;28;45375;-91
2021/07/26 00:58:20;;;;;;;;;15.25;13.00;;;;;20.65;65.62;100657.63;5018965;28;45399;-90
2021/07/26 01:00:46;;;;;;;;;17.25;15.75;;;;;20.63;65.65;100649.75;5018966;28;45343;-89
2021/07/26 01:03:12;;;;;;;;;17.25;14.75;;;;;20.59;65.53;100644.47;5019614;28;45976;-89
2021/07/26 01:05:37;;;;;;;;;15.75;14.75;;;;;20.54;65.17;100647.09;5020106;28;45327;-90
2021/07/26 01:08:04;;;;;;;;;20.00;17.25;;;;;20.52;65.66;100643.59;5019793;28;45372;-90
2021/07/26 01:10:30;;;;;;;;;18.00;15.50;;;;;20.51;64.92;100654.97;5020997;28;45262;-91
2021/07/26 01:12:56;;;;;;;;;19.75;19.00;;;;;20.46;65.24;100654.13;5019902;28;45275;-90
2021/07/26 01:15:22;;;;;;;;;25.00;19.25;;;;;20.42;65.47;100658.47;5018758;28;45217;-84
2021/07/26 01:18:23;;;;;;;;;30.75;24.25;;;;;20.40;64.89;100660.25;5015612;28;45382;-87
2021/07/26 01:21:00;;;;;;;;;23.75;22.25;;;;;20.36;65.18;100663.72;5022346;28;45464;-86
2021/07/26 01:23:28;;;;;;;;;32.00;25.25;;;;;20.30;64.57;100661.97;5018907;28;45412;-87
2021/07/26 01:25:55;;;;;;;;;29.00;25.50;;;;;20.26;64.64;100657.56;5022299;28;45808;-87
2021/07/26 01:28:23;;;;;;;;;37.00;32.75;;;;;20.24;65.54;100664.59;5024066;28;45401;-89
2021/07/26 01:30:49;;;;;;;;;27.25;26.00;;;;;20.21;65.58;100656.69;5018717;28;45506;-86
2021/07/26 01:33:17;;;;;;;;;24.50;22.50;;;;;20.18;65.73;100661.94;5018871;28;45970;-87
2021/07/26 01:35:43;;;;;;;;;23.00;19.75;;;;;20.17;65.82;100661.06;5018113;28;45163;-88
2021/07/26 01:38:10;;;;;;;;;20.00;17.00;;;;;20.13;65.04;100663.69;5017450;28;45349;-86
2021/07/26 01:40:39;;;;;;;;;19.50;17.25;;;;;20.06;65.47;100663.66;5017702;28;45267;-89
2021/07/26 01:43:07;;;;;;;;;17.25;14.00;;;;;20.04;65.65;100672.41;5017112;28;45527;-89
2021/07/26 01:45:33;;;;;;;;;17.00;14.50;;;;;20.02;65.17;100668.88;5017639;28;45669;-89
2021/07/26 01:48:03;;;;;;;;;13.00;12.00;;;;;19.97;65.66;100674.13;5023013;28;45472;-84
2021/07/26 01:50:34;;;;;;;;;16.75;12.50;;;;;19.94;65.43;100680.25;5032004;28;45334;-86
2021/07/26 01:53:00;;;;;;;;;11.25;11.25;;;;;19.90;65.69;100678.47;5029955;28;46416;-86
2021/07/26 01:55:25;;;;;;;;;14.25;12.50;;;;;19.89;66.18;100683.75;5017080;28;45411;-88
2021/07/26 01:57:51;;;;;;;;;13.00;12.25;;;;;19.87;65.80;100685.47;5017697;28;45391;-88
2021/07/26 02:00:17;;;;;;;;;14.25;13.00;;;;;19.83;66.04;100679.31;5018068;28;45438;-84
2021/07/26 02:02:43;;;;;;;;;14.50;11.00;;;;;19.82;65.98;100690.69;5018817;28;45933;-84
2021/07/26 02:05:09;;;;;;;;;13.75;12.50;;;;;19.83;66.58;100691.53;5017329;28;45373;-90
2021/07/26 02:07:35;;;;;;;;;14.00;11.50;;;;;19.84;66.46;100685.41;5018165;28;45366;-91
2021/07/26 02:10:01;;;;;;;;;20.75;13.00;;;;;19.88;66.45;100695.13;5016259;28;45518;-90
2021/07/26 02:12:27;;;;;;;;;14.00;13.25;;;;;19.88;66.51;100692.50;5017608;28;45429;-91
2021/07/26 02:14:53;;;;;;;;;15.75;14.25;;;;;19.90;66.51;100698.63;5023718;28;45274;-89
2021/07/26 02:17:19;;;;;;;;;17.75;14.25;;;;;19.89;66.36;100691.63;5020971;28;45558;-91
2021/07/26 02:19:45;;;;;;;;;15.25;14.25;;;;;19.85;65.94;100695.97;5018964;28;45456;-91
2021/07/26 02:22:10;;;;;;;;;16.00;13.75;;;;;19.85;66.40;100697.69;5017812;28;45521;-90
2021/07/26 02:24:36;;;;;;;;;16.50;15.25;;;;;19.82;66.42;100700.28;5019618;28;45366;-90
2021/07/26 02:27:04;;;;;;;;;19.50;17.00;;;;;19.83;66.61;100709.94;5018037;28;45839;-91
2021/07/26 02:29:29;;;;;;;;;17.00;15.50;;;;;19.77;66.25;100703.78;5019290;28;45249;-91
2021/07/26 02:31:55;;;;;;;;;15.25;12.75;;;;;19.78;66.18;100715.16;5025449;28;46301;-86
2021/07/26 02:34:21;;;;;;;;;12.50;12.25;;;;;19.78;66.78;100709.91;5029340;28;44767;-87
2021/07/26 02:36:46;;;;;;;;;12.75;12.75;;;;;19.83;66.69;100707.31;5022272;28;45221;-85
2021/07/26 02:39:12;;;;;;;;;17.00;15.00;;;;;19.86;66.13;100702.09;5022872;28;45447;-84
2021/07/26 02:41:38;;;;;;;;;14.00;14.00;;;;;19.89;66.04;100713.50;5023165;28;45084;-86
2021/07/26 02:44:03;;;;;;;;;15.50;12.50;;;;;19.86;66.19;100710.88;5019262;28;45502;-86
2021/07/26 02:46:29;;;;;;;;;15.25;13.25;;;;;19.86;66.52;100713.50;5018876;28;45440;-85
2021/07/26 02:48:55;;;;;;;;;14.25;13.25;;;;;19.85;65.80;100713.44;5018148;28;45460;-85
2021/07/26 02:51:20;;;;;;;;;13.00;10.25;;;;;19.82;65.81;100711.69;5016190;28;46228;-85
2021/07/26 02:53:46;;;;;;;;;11.75;10.50;;;;;19.77;66.28;100708.16;5016136;28;45391;-86
2021/07/26 02:56:12;;;;;;;;;10.75;10.75;;;;;19.75;66.52;100709.91;5016100;28;45462;-85
2021/07/26 02:58:38;;;;;;;;;15.75;12.00;;;;;19.71;65.91;100711.63;5022237;28;45572;-90
2021/07/26 03:01:08;;;;;;;;;16.50;11.75;;;;;19.70;65.87;100709.91;5021885;28;45979;-92
2021/07/26 03:03:34;;;;;;;;;12.25;12.25;;;;;19.70;65.97;100704.66;5018368;28;45229;-88
2021/07/26 03:05:59;;;;;;;;;13.75;12.25;;;;;19.72;66.09;100702.00;5019688;28;45391;-86
2021/07/26 03:08:26;;;;;;;;;17.75;12.50;;;;;19.75;66.39;100702.03;5020389;28;45589;-89
2021/07/26 03:11:00;;;;;;;;;15.25;12.00;;;;;19.80;65.85;100708.19;5023236;28;46067;-90
2021/07/26 03:13:26;;;;;;;;;13.25;12.25;;;;;19.83;65.87;100710.81;5024751;28;45727;-88
2021/07/26 03:15:52;;;;;;;;;15.00;12.50;;;;;19.84;66.37;100711.69;5022614;28;45877;-87
2021/07/26 03:18:17;;;;;;;;;13.50;12.25;;;;;19.85;66.00;100703.84;5020377;28;45323;-86
2021/07/26 03:20:46;;;;;;;;;14.50;13.00;;;;;19.87;66.20;100698.63;5020624;28;45341;-89
2021/07/26 03:23:12;;;;;;;;;12.00;10.75;;;;;19.85;66.06;100697.69;5019457;28;45478;-87
2021/07/26 03:25:42;;;;;;;;;13.50;13.50;;;;;19.84;65.56;100699.44;5020008;28;45264;-89
2021/07/26 03:28:08;;;;;;;;;14.50;12.25;;;;;19.80;65.80;100708.19;5023380;28;45387;-86
2021/07/26 03:30:34;;;;;;;;;15.25;12.00;;;;;19.82;66.08;100705.53;5033632;28;46613;-84
2021/07/26 03:33:00;;;;;;;;;12.75;12.00;;;;;19.81;65.77;100707.31;5028948;28;45341;-89
2021/07/26 03:35:26;;;;;;;;;10.50;9.75;;;;;19.79;65.77;100703.78;5022747;28;45343;-87
2021/07/26 03:37:52;;;;;;;;;15.50;12.50;;;;;19.82;65.76;100705.53;5023472;28;45242;-87
2021/07/26 03:40:19;;;;;;;;;12.50;11.00;;;;;19.85;66.21;100708.19;5019933;28;45418;-90
2021/07/26 03:42:46;;;;;;;;;13.00;11.50;;;;;19.85;65.47;100709.09;5021369;28;45336;-90
2021/07/26 03:45:13;;;;;;;;;13.50;12.75;;;;;19.85;66.09;100710.81;5021568;28;45428;-90
2021/07/26 03:47:40;;;;;;;;;14.00;12.25;;;;;19.84;66.10;100704.69;5028074;28;45513;-91
2021/07/26 03:50:07;;;;;;;;;14.75;10.25;;;;;19.82;65.95;100709.06;5024029;28;45403;-89
2021/07/26 03:52:55;;;;;;;;;13.00;11.50;;;;;19.80;66.11;100711.69;5020098;28;45241;-89
2021/07/26 03:55:23;;;;;;;;;10.50;10.00;;;;;19.78;66.29;100715.16;5020836;28;45370;-91
2021/07/26 03:57:50;;;;;;;;;16.00;13.00;;;;;19.80;66.03;100709.06;5020560;28;45391;-92
2021/07/26 04:00:18;;;;;;;;;13.50;12.50;;;;;19.84;65.65;100707.34;5020445;28;45248;-92
2021/07/26 04:02:51;;;;;;;;;10.25;9.75;;;;;19.90;65.52;100717.03;5021259;28;45731;-91
2021/07/26 04:05:25;;;;;;;;;16.00;15.00;;;;;19.96;65.53;100717.03;5025959;28;45210;-86
2021/07/26 04:07:51;;;;;;;;;15.25;11.25;;;;;19.94;65.75;100710.91;5020179;28;45647;-89
2021/07/26 04:10:17;;;;;;;;;12.00;11.50;;;;;19.98;65.89;100715.31;5019129;28;45292;-86
2021/07/26 04:12:47;;;;;;;;;17.50;15.00;;;;;19.97;65.67;100718.81;5019266;28;45681;-86
2021/07/26 04:15:13;;;;;;;;;11.25;10.75;;;;;19.93;65.80;100717.03;5020484;28;45360;-88
2021/07/26 04:17:39;;;;;;;;;14.00;11.25;;;;;19.91;65.79;100718.78;5028216;28;45350;-84
2021/07/26 04:20:06;;;;;;;;;14.00;11.75;;;;;19.90;65.47;100717.88;5026420;28;45171;-87
2021/07/26 04:22:32;;;;;;;;;13.25;11.50;;;;;19.90;65.93;100717.03;5020227;28;45256;-88
2021/07/26 04:24:57;;;;;;;;;13.00;11.75;;;;;19.91;65.45;100719.66;5018721;28;45257;-84
2021/07/26 04:27:26;;;;;;;;;13.75;12.75;;;;;19.94;66.04;100724.03;5018452;28;45634;-85
2021/07/26 04:29:53;;;;;;;;;13.00;12.25;;;;;19.94;65.35;100724.94;5016381;28;46983;-84
2021/07/26 04:32:19;;;;;;;;;15.25;12.75;;;;;19.94;65.39;100721.41;5018542;28;45817;-84
2021/07/26 04:34:44;;;;;;;;;13.50;12.25;;;;;19.93;65.52;100717.91;5018904;28;45214;-85
2021/07/26 04:37:10;;;;;;;;;14.00;12.00;;;;;19.95;65.99;100729.31;5025842;28;45269;-88
2021/07/26 04:39:36;;;;;;;;;13.25;11.25;;;;;19.98;65.37;100730.22;5026141;28;45665;-93
2021/07/26 04:42:01;;;;;;;;;16.25;12.00;;;;;19.98;65.80;100725.81;5024073;28;45228;-84
2021/07/26 04:44:27;;;;;;;;;11.50;11.50;;;;;20.02;65.90;100724.06;5020997;28;45308;-85
2021/07/26 04:46:52;;;;;;;;;9.25;8.25;;;;;20.04;65.61;100730.22;5019419;28;45227;-86
2021/07/26 04:49:20;;;;;;;;;10.75;9.00;;;;;20.04;65.65;100724.97;5018911;28;46111;-83
2021/07/26 04:51:45;;;;;;;;;14.75;12.00;;;;;20.05;65.38;100727.59;5019415;28;45327;-87
2021/07/26 04:54:11;;;;;;;;;8.25;7.75;;;;;20.10;65.82;100730.25;5009826;28;45352;-89
2021/07/26 04:56:37;;;;;;;;;10.50;9.25;;;;;20.13;65.40;100740.78;5014783;28;45561;-89
2021/07/26 04:59:02;;;;;;;;;11.50;10.25;;;;;20.16;65.64;100739.91;4998425;28;46361;-85
2021/07/26 05:01:28;;;;;;;;;11.50;11.25;;;;;20.17;65.81;100739.03;4998335;28;45552;-85
2021/07/26 05:03:54;;;;;;;;;10.75;10.25;;;;;20.18;65.60;100738.16;4998364;28;45462;-87
2021/07/26 05:06:20;;;;;;;;;11.75;10.25;;;;;20.20;65.36;100739.91;5002896;28;45441;-83
2021/07/26 05:08:45;;;;;;;;;9.25;9.25;;;;;20.24;65.61;100746.94;5023115;28;47415;-85
2021/07/26 05:11:11;;;;;;;;;10.75;9.00;;;;;20.26;65.43;100744.31;5033884;28;45345;-86
2021/07/26 05:13:37;;;;;;;;;10.25;9.75;;;;;20.28;65.01;100744.34;5029586;28;45190;-89
2021/07/26 05:16:02;;;;;;;;;9.75;9.75;;;;;20.28;65.17;100750.47;5020206;28;45217;-88
2021/07/26 05:18:28;;;;;;;;;14.75;10.75;;;;;20.28;65.21;100746.97;5018819;28;46114;-85
2021/07/26 05:20:53;;;;;;;;;9.75;9.50;;;;;20.29;65.17;100752.22;5021158;28;45248;-88
2021/07/26 05:23:19;;;;;;;;;8.50;7.50;;;;;20.28;65.60;100753.09;5025040;28;45329;-91
2021/07/26 05:25:46;;;;;;;;;8.00;7.25;;;;;20.28;64.84;100760.97;5019557;28;45356;-85
2021/07/26 05:28:13;;;;;;;;;6.75;6.75;;;;;20.27;64.98;100753.97;5021114;28;45426;-89
2021/07/26 05:30:39;;;;;;;;;8.00;7.00;;;;;20.27;65.62;100759.22;5020286;28;45693;-86
2021/07/26 05:33:05;;;;;;;;;7.75;7.00;;;;;20.28;65.79;100765.38;5018275;28;45319;-88
2021/07/26 05:35:31;;;;;;;;;13.00;9.00;;;;;20.26;65.43;100754.84;5021976;28;45678;-89
2021/07/26 05:37:57;;;;;;;;;7.75;7.25;;;;;20.30;65.59;100761.88;5021647;28;45233;-83
2021/07/26 05:40:22;;;;;;;;;14.00;9.50;;;;;20.28;65.44;100750.47;5018648;28;45251;-83
2021/07/26 05:42:48;;;;;;;;;10.50;10.25;;;;;20.30;65.54;100756.63;5018760;28;45212;-85
2021/07/26 05:45:14;;;;;;;;;7.00;7.00;;;;;20.32;65.13;100761.88;5018257;28;45368;-90
2021/07/26 05:47:39;;;;;;;;;9.25;9.00;;;;;20.31;65.64;100753.13;5015552;28;47498;-87
2021/07/26 05:50:06;;;;;;;;;11.25;9.25;;;;;20.30;65.51;100753.97;4997210;28;45402;-86
2021/07/26 05:52:31;;;;;;;;;9.50;9.25;;;;;20.32;65.99;100757.50;4997815;28;45823;-85
2021/07/26 05:54:57;;;;;;;;;9.25;8.25;;;;;20.35;65.42;100752.25;4998520;28;45648;-86
2021/07/26 05:57:25;;;;;;;;;12.50;8.75;;;;;20.35;64.96;100754.00;4997846;28;45388;-88
2021/07/26 05:59:55;;;;;;;;;11.00;11.00;;;;;20.36;65.28;100745.25;4998161;28;45278;-87
2021/07/26 06:02:21;;;;;;;;;8.25;6.75;;;;;20.40;64.95;100750.50;5005689;28;45316;-85
2021/07/26 06:04:47;;;;;;;;;8.00;8.00;;;;;20.42;65.43;100742.63;5018378;28;45398;-83
2021/07/26 06:07:12;;;;;;;;;12.75;10.25;;;;;20.42;65.54;100751.41;5018282;28;47136;-84
2021/07/26 06:09:38;;;;;;;;;11.00;10.25;;;;;20.42;64.90;100754.03;5017117;28;45331;-85
2021/07/26 06:12:04;;;;;;;;;9.75;9.25;;;;;20.36;65.14;100750.50;5006008;28;45413;-83
2021/07/26 06:14:29;;;;;;;;;14.00;11.00;;;;;20.34;65.44;100758.41;5008697;28;45485;-89
2021/07/26 06:16:57;;;;;;;;;10.00;10.00;;;;;20.32;65.61;100759.22;5020784;28;45295;-90
2021/07/26 06:19:23;;;;;;;;;12.75;10.50;;;;;20.40;65.61;100766.28;5029857;28;45423;-85
2021/07/26 06:21:51;;;;;;;;;10.00;9.00;;;;;20.45;65.04;100775.97;5032766;28;44719;-82
2021/07/26 06:24:18;;;;;;;;;10.50;9.75;;;;;20.42;65.27;100761.03;5032254;28;44948;-85
2021/07/26 06:26:44;;;;;;;;;10.00;9.75;;;;;20.40;65.64;100766.28;5039218;28;45423;-86
2021/07/26 06:29:10;;;;;;;;;12.25;12.25;;;;;20.38;66.01;100768.03;5036976;28;45671;-82
2021/07/26 06:31:36;;;;;;;;;14.75;14.00;;;;;20.37;65.88;100763.63;5031170;28;45207;-86
2021/07/26 06:34:03;;;;;;;;;10.25;8.75;;;;;20.35;66.11;100767.16;5009892;28;45154;-83
2021/07/26 06:36:29;;;;;;;;;13.75;11.00;;;;;20.40;66.01;100768.06;4999667;28;45434;-88
2021/07/26 06:38:56;;;;;;;;;11.25;9.00;;;;;20.42;65.31;100764.56;5005124;28;45779;-84
2021/07/26 06:41:22;;;;;;;;;14.25;10.75;;;;;20.44;65.34;100774.19;5010446;28;45425;-84
2021/07/26 06:43:50;;;;;;;;;9.75;9.25;;;;;20.46;65.09;100768.06;5014657;28;45598;-84
2021/07/26 06:46:16;;;;;;;;;13.50;12.75;;;;;20.48;65.37;100768.06;5011155;28;46349;-85
2021/07/26 06:48:41;;;;;;;;;16.50;9.50;;;;;20.50;65.28;100767.22;5015613;28;45360;-83
2021/07/26 06:51:07;;;;;;;;;14.50;11.50;;;;;20.53;65.57;100776.84;5022586;28;45396;-85
2021/07/26 06:53:33;;;;;;;;;9.00;7.25;;;;;20.52;65.42;100777.72;5022585;28;45545;-84
2021/07/26 06:56:09;;;;;;;;;9.75;9.00;;;;;20.48;65.70;100774.22;5018623;28;45860;-84
2021/07/26 06:58:36;;;;;;;;;7.00;6.50;;;;;20.45;65.78;100781.22;5000480;28;45416;-84
2021/07/26 07:01:11;;;;;;;;;8.75;8.25;;;;;20.40;65.68;100782.06;5004684;28;45907;-89
2021/07/26 07:03:40;;;;;;;;;15.75;10.00;;;;;20.37;66.23;100787.31;5012810;28;45605;-82
2021/07/26 07:06:08;;;;;;;;;7.75;5.75;;;;;20.36;66.09;100792.56;5015477;28;45574;-85
2021/07/26 07:08:34;;;;;;;;;11.00;9.75;;;;;20.34;66.36;100792.56;5019286;28;45442;-88
2021/07/26 07:11:05;;;;;;;;;8.25;8.25;;;;;20.31;66.84;100797.81;5018129;28;45500;-85
2021/07/26 07:13:32;;;;;;;;;7.50;7.50;;;;;20.30;66.25;100803.94;5020119;28;45466;-87
2021/07/26 07:15:57;;;;;;;;;9.50;9.00;;;;;20.29;66.47;100809.19;5018228;28;46162;-85
2021/07/26 07:18:23;;;;;;;;;11.25;8.00;;;;;20.22;66.74;100800.41;5018452;28;45425;-86
2021/07/26 07:20:49;;;;;;;;;11.00;10.50;;;;;20.22;67.30;100803.03;5018200;28;45469;-88
2021/07/26 07:23:14;;;;;;;;;10.00;8.50;;;;;20.25;66.81;100801.28;5020711;28;45464;-86
2021/07/26 07:25:40;;;;;;;;;13.00;10.00;;;;;20.29;67.54;100799.56;5019199;28;45551;-84
2021/07/26 07:28:05;;;;;;;;;12.75;10.00;;;;;20.36;67.25;100805.72;5018923;28;45320;-85
2021/07/26 07:30:31;;;;;;;;;13.00;10.00;;;;;20.40;67.20;100811.00;5018730;28;45355;-85
2021/07/26 07:33:00;;;;;;;;;16.75;11.75;;;;;20.44;66.92;100803.13;5018674;28;45725;-86
2021/07/26 07:35:26;;;;;;;;;14.00;12.25;;;;;20.45;66.43;100815.41;5017353;28;46039;-84
2021/07/26 07:37:52;;;;;;;;;14.25;12.25;;;;;20.44;66.56;100814.50;5018199;28;45577;-82
2021/07/26 07:40:18;;;;;;;;;15.00;13.75;;;;;20.48;66.52;100815.41;5018334;28;45305;-82
2021/07/26 07:42:43;;;;;;;;;17.25;11.25;;;;;20.52;66.77;100811.91;5018842;28;45245;-82
2021/07/26 07:45:10;;;;;;;;;14.75;13.50;;;;;20.53;66.12;100813.69;5018619;28;45384;-85
2021/07/26 07:47:35;;;;;;;;;14.50;13.00;;;;;20.60;66.66;100822.47;5020026;28;45847;-81
2021/07/26 07:50:03;;;;;;;;;14.75;13.50;;;;;20.66;66.41;100820.75;5019018;28;45340;-81
2021/07/26 07:52:28;;;;;;;;;17.25;14.00;;;;;20.70;65.88;100817.22;5021226;28;45377;-85
2021/07/26 07:54:54;;;;;;;;;16.50;12.25;;;;;20.70;66.22;100816.38;5018477;28;45818;-90
2021/07/26 07:57:21;;;;;;;;;13.25;12.50;;;;;20.74;66.13;100812.88;5022002;28;45330;-84
2021/07/26 07:59:47;;;;;;;;;15.50;13.25;;;;;20.84;65.94;100824.31;5018081;28;45197;-80
2021/07/26 08:02:13;;;;;;;;;16.00;15.00;;;;;20.98;65.72;100808.56;5019188;28;45538;-81
2021/07/26 08:04:40;;;;;;;;;17.75;15.25;;;;;21.19;64.61;100815.63;5017718;28;45452;-84
2021/07/26 08:07:06;;;;;;;;;20.00;14.75;;;;;21.38;64.11;100812.97;5017335;28;45545;-84
2021/07/26 08:09:32;;;;;;;;;14.25;13.00;;;;;21.37;64.02;100814.75;5018223;28;45411;-84
2021/07/26 08:11:58;;;;;;;;;15.75;13.50;;;;;21.38;63.88;100820.88;5016208;28;45470;-84
2021/07/26 08:14:23;;;;;;;;;13.00;13.00;;;;;21.31;64.09;100812.09;5017255;28;45474;-84
2021/07/26 08:16:49;;;;;;;;;15.00;12.50;;;;;21.32;64.13;100819.13;5016317;28;45423;-88
2021/07/26 08:19:15;;;;;;;;;15.75;13.00;;;;;21.36;64.02;100831.44;5018417;28;45566;-88
2021/07/26 08:21:40;;;;;;;;;15.75;13.50;;;;;21.34;63.92;100820.00;5001725;28;45218;-89
2021/07/26 08:24:06;;;;;;;;;15.00;13.75;;;;;21.36;63.89;100828.78;4998295;28;47010;-88
2021/07/26 08:26:32;;;;;;;;;14.75;11.75;;;;;21.38;63.47;100831.41;4999584;28;45353;-87
2021/07/26 08:28:57;;;;;;;;;11.50;10.25;;;;;21.37;63.01;100829.66;5003101;28;45242;-88
2021/07/26 08:31:23;;;;;;;;;15.75;11.50;;;;;21.39;63.43;100835.81;5010979;28;45569;-88
2021/07/26 08:33:48;;;;;;;;;11.50;10.00;;;;;21.42;63.33;100838.47;5010879;28;45210;-89
2021/07/26 08:36:14;;;;;;;;;19.50;13.25;;;;;21.40;63.76;100832.31;5002491;28;45283;-91
2021/07/26 08:38:40;;;;;;;;;10.00;10.00;;;;;21.39;63.25;100827.91;5009494;28;45407;-89
2021/07/26 08:41:05;;;;;;;;;15.25;12.50;;;;;21.46;63.53;100829.66;5017247;28;45332;-90
2021/07/26 08:43:31;;;;;;;;;11.25;11.25;;;;;21.59;63.13;100835.84;5020440;28;45388;-88
2021/07/26 08:45:58;;;;;;;;;12.50;11.50;;;;;21.66;62.57;100837.59;5020485;28;45333;-87
2021/07/26 08:48:24;;;;;;;;;13.00;12.00;;;;;21.71;62.44;100838.44;5018544;28;45288;-87
2021/07/26 08:50:53;;;;;;;;;15.25;12.50;;;;;21.78;62.16;100831.44;5018447;28;45328;-88
2021/07/26 08:53:20;;;;;;;;;11.50;10.25;;;;;21.89;62.29;100831.44;5018001;28;45328;-87
2021/07/26 08:55:50;;;;;;;;;12.75;12.50;;;;;21.93;62.23;100841.06;5016987;28;45771;-86
2021/07/26 08:58:16;;;;;;;;;13.25;11.25;;;;;21.86;61.82;100852.50;5019488;28;45394;-87
2021/07/26 09:00:43;;;;;;;;;13.25;13.00;;;;;21.76;62.24;100849.00;5019020;28;45614;-88
2021/07/26 09:03:08;;;;;;;;;14.75;12.25;;;;;21.68;62.47;100845.50;5016795;28;45426;-88
2021/07/26 09:05:34;;;;;;;;;12.25;11.50;;;;;21.63;62.67;100856.03;5021038;28;45348;-88
2021/07/26 09:08:02;;;;;;;;;14.75;12.75;;;;;21.62;62.73;100856.91;5017812;28;45427;-86
2021/07/26 09:10:30;;;;;;;;;16.25;12.75;;;;;21.59;62.71;100859.56;5017244;28;45337;-86
2021/07/26 09:12:56;;;;;;;;;16.25;13.50;;;;;21.56;63.00;100859.53;5019397;28;46325;-87
2021/07/26 09:15:24;;;;;;;;;12.25;10.75;;;;;21.56;64.38;100862.16;5019221;28;45255;-87
2021/07/26 09:17:51;;;;;;;;;11.25;10.50;;;;;21.59;63.54;100863.06;5014859;28;45495;-85
2021/07/26 09:20:18;;;;;;;;;12.00;11.75;;;;;21.60;64.33;100866.56;5020120;28;45502;-83
2021/07/26 09:22:47;;;;;;;;;13.50;11.75;;;;;21.57;64.17;100864.78;5019626;28;45458;-83
2021/07/26 09:25:21;;;;;;;;;14.25;11.00;;;;;21.49;64.75;100871.81;5011061;28;45461;-81
2021/07/26 09:28:08;;;;;;;;;11.50;11.50;;;;;21.47;65.19;100873.56;5011676;28;45350;-81
2021/07/26 09:30:45;;;;;;;;;14.00;12.50;;;;;21.45;65.36;100873.56;5015444;28;45297;-84
2021/07/26 09:33:23;;;;;;;;;18.50;14.75;;;;;21.48;65.29;100868.31;4999282;28;47099;-87
2021/07/26 09:36:19;;;;;;;;;17.25;13.75;;;;;21.48;65.14;100876.22;5006908;28;45367;-89
2021/07/26 09:38:53;;;;;;;;;16.50;13.50;;;;;21.49;65.71;100871.81;5001460;28;45396;-89
2021/07/26 09:41:42;;;;;;;;;14.25;11.25;;;;;21.54;66.30;100875.34;5000468;28;45321;-84
2021/07/26 09:44:08;;;;;;;;;17.75;13.50;;;;;21.55;66.50;100868.31;5007777;28;45566;-85
2021/07/26 09:46:36;;;;;;;;;13.75;13.75;;;;;21.53;67.01;100851.63;5033026;28;45429;-87
2021/07/26 09:49:15;;;;;;;;;15.50;13.00;;;;;21.60;66.92;100859.56;5019924;28;45425;-84
2021/07/26 09:51:43;;;;;;;;;14.50;12.75;;;;;21.65;67.09;100855.16;5016755;28;45457;-86
2021/07/26 09:54:09;;;;;;;;;15.00;13.00;;;;;21.71;67.13;100856.03;5019451;28;45570;-91
2021/07/26 09:56:35;;;;;;;;;16.25;13.50;;;;;21.68;66.95;100864.84;5015637;28;45518;-78
2021/07/26 09:59:02;;;;;;;;;22.25;16.50;;;;;21.64;66.60;100856.06;5002669;28;45466;-80
2021/07/26 10:01:29;;;;;;;;;21.00;17.00;;;;;21.58;66.50;100866.53;5006010;28;45498;-79
2021/07/26 10:03:57;;;;;;;;;15.25;15.00;;;;;21.52;66.25;100868.28;4997576;28;45330;-80
2021/07/26 10:06:23;;;;;;;;;22.50;18.00;;;;;21.52;66.42;100863.91;5000083;28;45370;-79
2021/07/26 10:08:50;;;;;;;;;19.00;16.75;;;;;21.59;66.30;100863.06;5015487;28;45315;-79
2021/07/26 10:11:17;;;;;;;;;16.75;16.75;;;;;21.67;66.61;100872.72;5016328;28;45576;-79
2021/07/26 10:13:47;;;;;;;;;17.00;14.00;;;;;21.71;65.90;100861.31;5015728;28;46717;-79
2021/07/26 10:16:15;;;;;;;;;21.50;20.25;;;;;21.78;65.87;100860.41;5015421;28;45794;-80
2021/07/26 10:18:47;;;;;;;;;19.75;16.50;;;;;21.90;65.14;100860.41;5030972;28;45453;-80
2021/07/26 10:21:18;;;;;;;;;16.50;14.25;;;;;21.96;65.48;100862.16;5016223;28;45514;-79
2021/07/26 10:23:54;;;;;;;;;19.00;15.75;;;;;22.03;64.77;100857.75;5015881;28;45346;-79
2021/07/26 10:26:32;;;;;;;;;15.00;13.00;;;;;22.02;63.96;100871.81;5015156;28;45337;-79
2021/07/26 10:28:58;;;;;;;;;19.50;13.00;;;;;21.90;63.89;100870.09;5015239;28;45320;-79
2021/07/26 10:31:35;;;;;;;;;15.75;13.75;;;;;21.76;63.72;100868.34;5015995;28;45418;-80
2021/07/26 10:34:15;;;;;;;;;16.75;14.50;;;;;21.70;64.30;100875.34;5009541;28;46690;-81
2021/07/26 10:36:41;;;;;;;;;11.50;10.50;;;;;21.69;65.01;100866.59;5014495;28;45829;-80
2021/07/26 10:39:14;;;;;;;;;15.75;15.50;;;;;21.81;64.90;100860.41;5007244;28;45360;-80
2021/07/26 10:41:42;;;;;;;;;18.25;13.50;;;;;22.00;64.17;100860.38;5001230;28;45405;-80
2021/07/26 10:44:09;;;;;;;;;12.25;11.00;;;;;22.13;63.92;100864.75;5006388;28;45223;-80
2021/07/26 10:46:53;;;;;;;;;13.25;11.75;;;;;22.14;62.82;100863.03;5018203;28;45781;-80
2021/07/26 10:49:20;;;;;;;;;13.00;13.00;;;;;22.02;62.96;100858.63;5015059;28;45311;-80
2021/07/26 10:51:52;;;;;;;;;12.75;11.00;;;;;21.92;63.22;100874.47;5015962;28;45558;-80
2021/07/26 10:54:29;;;;;;;;;12.25;12.25;;;;;21.88;63.68;100869.19;5013757;28;45432;-79
2021/07/26 10:57:05;;;;;;;;;10.75;10.25;;;;;21.89;63.68;100881.50;4994796;28;45293;-80
2021/07/26 10:59:50;;;;;;;;;14.00;12.00;;;;;21.92;63.05;100863.94;4995401;28;45412;-80
2021/07/26 11:02:32;;;;;;;;;11.00;11.00;;;;;22.02;62.65;100863.91;4997010;28;45411;-80
2021/07/26 11:04:58;;;;;;;;;9.75;8.75;;;;;22.17;62.54;100863.00;5005350;28;45232;-80
2021/07/26 11:07:28;;;;;;;;;10.75;9.00;;;;;22.34;62.41;100855.03;5014468;28;45337;-80
2021/07/26 11:09:54;;;;;;;;;12.25;9.50;;;;;22.53;62.07;100863.81;5014518;28;45339;-79
2021/07/26 11:12:51;;;;;;;;;9.00;8.25;;;;;22.59;60.95;100865.53;5013839;28;45395;-80
2021/07/26 11:15:17;;;;;;;;;9.75;8.00;;;;;22.53;61.36;100869.06;5007515;28;46296;-79
2021/07/26 11:18:17;;;;;;;;;11.25;8.75;;;;;22.43;62.47;100862.94;4996500;28;45530;-80